createdAt,value
2018-11-27T00:00:33.199Z,7.67
2018-11-27T00:03:06.115Z,8.33
2018-11-27T00:05:35.446Z,7.00
2018-11-27T00:08:04.546Z,7.77
2018-11-27T00:10:35.381Z,7.57
2018-11-27T00:13:04.251Z,5.97
2018-11-27T00:18:10.448Z,5.67
2018-11-27T00:20:39.657Z,7.67
2018-11-27T00:23:08.268Z,6.60
2018-11-27T00:25:37.091Z,5.20
2018-11-27T00:28:06.130Z,6.47
2018-11-27T00:30:34.661Z,6.40
2018-11-27T00:33:03.365Z,6.00
2018-11-27T00:35:32.483Z,6.50
2018-11-27T00:38:01.041Z,5.87
2018-11-27T00:40:29.647Z,5.40
2018-11-27T00:42:58.172Z,5.77
2018-11-27T00:45:27.399Z,6.50
2018-11-27T00:47:56.639Z,5.40
2018-11-27T00:50:25.278Z,6.97
2018-11-27T00:52:54.357Z,5.17
2018-11-27T00:55:23.492Z,5.83
2018-11-27T00:57:53.625Z,6.93
2018-11-27T01:00:23.401Z,7.37
2018-11-27T01:02:52.229Z,6.80
2018-11-27T01:05:21.982Z,7.50
2018-11-27T01:07:51.166Z,6.87
2018-11-27T01:10:22.468Z,5.80
2018-11-27T01:12:51.055Z,4.67
2018-11-27T01:15:26.943Z,6.43
2018-11-27T01:17:58.733Z,7.97
2018-11-27T01:20:28.347Z,19.40
2018-11-27T01:22:56.962Z,5.37
2018-11-27T01:25:26.317Z,7.83
2018-11-27T01:27:54.873Z,5.77
2018-11-27T01:30:24.203Z,4.10
2018-11-27T01:32:53.113Z,3.97
2018-11-27T01:35:23.292Z,4.30
2018-11-27T01:37:54.055Z,5.57
2018-11-27T01:40:23.807Z,5.20
2018-11-27T01:42:55.532Z,4.20
2018-11-27T01:45:24.771Z,4.40
2018-11-27T01:47:53.553Z,4.00
2018-11-27T01:50:22.815Z,3.37
2018-11-27T01:52:51.725Z,4.63
2018-11-27T01:55:21.528Z,4.70
2018-11-27T01:57:50.317Z,5.27
2018-11-27T02:00:24.852Z,6.63
2018-11-27T02:02:54.417Z,5.33
2018-11-27T02:05:23.829Z,3.93
2018-11-27T02:07:53.147Z,6.13
2018-11-27T02:10:21.704Z,4.47
2018-11-27T02:12:51.615Z,5.50
2018-11-27T02:15:21.710Z,4.40
2018-11-27T02:17:51.133Z,4.27
2018-11-27T02:20:20.034Z,3.30
2018-11-27T02:22:48.940Z,4.33
2018-11-27T02:25:22.886Z,3.33
2018-11-27T02:27:51.874Z,5.23
2018-11-27T02:30:22.005Z,4.30
2018-11-27T02:32:50.682Z,3.60
2018-11-27T02:35:20.104Z,2.93
2018-11-27T02:37:50.138Z,5.70
2018-11-27T02:40:19.326Z,5.50
2018-11-27T02:42:48.481Z,4.90
2018-11-27T02:45:21.341Z,3.43
2018-11-27T02:47:51.338Z,6.53
2018-11-27T02:50:21.627Z,5.30
2018-11-27T02:52:50.800Z,5.90
2018-11-27T02:55:20.770Z,6.33
2018-11-27T02:57:49.306Z,6.20
2018-11-27T03:00:19.210Z,6.50
2018-11-27T03:02:48.245Z,7.23
2018-11-27T03:05:27.877Z,7.13
2018-11-27T03:07:56.456Z,8.63
2018-11-27T03:10:25.359Z,6.43
2018-11-27T03:12:54.747Z,6.43
2018-11-27T03:15:23.582Z,7.97
2018-11-27T03:17:52.161Z,8.47
2018-11-27T03:20:20.771Z,8.63
2018-11-27T03:22:49.339Z,10.30
2018-11-27T03:25:20.074Z,7.70
2018-11-27T03:27:50.490Z,9.03
2018-11-27T03:30:20.895Z,8.17
2018-11-27T03:32:49.512Z,9.60
2018-11-27T03:35:19.481Z,9.70
2018-11-27T03:37:48.858Z,7.30
2018-11-27T03:40:20.726Z,10.10
2018-11-27T03:42:49.685Z,10.03
2018-11-27T03:45:19.520Z,9.03
2018-11-27T03:47:48.210Z,7.50
2018-11-27T03:50:23.128Z,7.73
2018-11-27T03:52:52.226Z,8.87
2018-11-27T03:55:21.641Z,8.80
2018-11-27T03:57:50.487Z,7.90
2018-11-27T04:00:23.026Z,8.50
2018-11-27T04:02:57.313Z,6.73
2018-11-27T04:05:26.978Z,8.80
2018-11-27T04:07:55.943Z,7.40
2018-11-27T04:10:24.962Z,9.83
2018-11-27T04:12:53.520Z,10.37
2018-11-27T04:15:23.099Z,8.47
2018-11-27T04:17:52.023Z,6.47
2018-11-27T04:20:21.007Z,9.03
2018-11-27T04:22:50.062Z,5.97
2018-11-27T04:25:19.128Z,6.83
2018-11-27T04:27:48.308Z,7.00
2018-11-27T04:30:20.440Z,7.77
2018-11-27T04:32:49.397Z,9.83
2018-11-27T04:35:19.168Z,7.20
2018-11-27T04:37:48.196Z,7.90
2018-11-27T04:40:19.871Z,7.70
2018-11-27T04:42:48.683Z,10.87
2018-11-27T04:45:20.316Z,7.87
2018-11-27T04:47:48.845Z,7.87
2018-11-27T04:50:18.090Z,8.40
2018-11-27T04:52:46.938Z,11.07
2018-11-27T04:55:17.394Z,8.90
2018-11-27T04:57:47.285Z,8.97
2018-11-27T05:00:26.607Z,10.70
2018-11-27T05:02:55.450Z,8.17
2018-11-27T05:05:25.100Z,8.90
2018-11-27T05:07:53.966Z,9.57
2018-11-27T05:10:23.687Z,9.97
2018-11-27T05:12:52.822Z,10.77
2018-11-27T05:15:24.179Z,8.80
2018-11-27T05:17:54.132Z,8.80
2018-11-27T05:20:22.759Z,8.50
2018-11-27T05:22:51.735Z,7.17
2018-11-27T05:25:20.900Z,9.37
2018-11-27T05:27:51.629Z,8.83
2018-11-27T05:30:22.508Z,6.40
2018-11-27T05:32:51.632Z,10.60
2018-11-27T05:35:23.222Z,5.90
2018-11-27T05:37:52.537Z,8.17
2018-11-27T05:40:22.276Z,9.30
2018-11-27T05:42:53.484Z,8.73
2018-11-27T05:45:22.852Z,9.87
2018-11-27T05:47:51.431Z,9.03
2018-11-27T05:50:20.284Z,6.00
2018-11-27T05:52:48.916Z,7.27
2018-11-27T05:55:17.779Z,6.93
2018-11-27T05:57:48.463Z,8.40
2018-11-27T06:00:22.325Z,9.00
2018-11-27T06:02:52.468Z,10.03
2018-11-27T06:05:22.196Z,7.60
2018-11-27T06:07:51.140Z,9.03
2018-11-27T06:10:20.897Z,8.60
2018-11-27T06:12:49.858Z,8.07
2018-11-27T06:15:20.620Z,9.17
2018-11-27T06:17:52.356Z,9.03
2018-11-27T06:20:23.397Z,11.87
2018-11-27T06:22:52.560Z,11.40
2018-11-27T06:25:25.370Z,10.00
2018-11-27T06:27:55.354Z,14.30
2018-11-27T06:30:25.253Z,10.00
2018-11-27T06:32:54.729Z,9.53
2018-11-27T06:35:40.110Z,9.30
2018-11-27T06:38:10.367Z,12.67
2018-11-27T06:40:39.539Z,11.60
2018-11-27T06:43:09.536Z,11.90
2018-11-27T06:45:39.015Z,10.30
2018-11-27T06:48:08.492Z,14.33
2018-11-27T06:50:37.745Z,13.13
2018-11-27T06:53:07.417Z,10.90
2018-11-27T06:55:36.207Z,13.90
2018-11-27T06:58:05.611Z,11.60
2018-11-27T07:00:34.463Z,10.30
2018-11-27T07:03:03.231Z,10.97
2018-11-27T07:05:32.092Z,12.03
2018-11-27T07:08:00.602Z,11.67
2018-11-27T07:10:31.292Z,10.90
2018-11-27T07:13:03.377Z,13.40
2018-11-27T07:15:31.955Z,11.60
2018-11-27T07:18:01.208Z,10.67
2018-11-27T07:20:30.322Z,13.23
2018-11-27T07:22:59.656Z,11.30
2018-11-27T07:25:28.570Z,10.43
2018-11-27T07:27:57.291Z,10.80
2018-11-27T07:30:26.036Z,10.70
2018-11-27T07:32:54.852Z,9.67
2018-11-27T07:35:23.536Z,9.93
2018-11-27T07:37:52.375Z,10.40
2018-11-27T07:40:23.182Z,10.80
2018-11-27T07:42:54.235Z,8.90
2018-11-27T07:45:23.618Z,9.50
2018-11-27T07:47:52.203Z,11.20
2018-11-27T07:50:20.895Z,10.70
2018-11-27T07:52:49.684Z,10.00
2018-11-27T07:55:22.178Z,10.87
2018-11-27T07:57:51.913Z,10.77
2018-11-27T08:00:22.013Z,11.20
2018-11-27T08:02:55.589Z,11.73
2018-11-27T08:05:27.369Z,20.97
2018-11-27T08:07:56.824Z,11.23
2018-11-27T08:10:27.820Z,12.37
2018-11-27T08:12:56.643Z,9.00
2018-11-27T08:15:26.596Z,9.37
2018-11-27T08:17:55.482Z,10.37
2018-11-27T08:20:28.411Z,11.47
2018-11-27T08:22:57.243Z,10.43
2018-11-27T08:25:25.790Z,11.03
2018-11-27T08:27:54.380Z,10.83
2018-11-27T08:30:23.578Z,9.60
2018-11-27T08:32:53.342Z,13.50
2018-11-27T08:35:23.752Z,9.57
2018-11-27T08:37:53.576Z,11.17
2018-11-27T08:40:23.260Z,9.03
2018-11-27T08:42:52.216Z,8.30
2018-11-27T08:45:22.963Z,11.73
2018-11-27T08:47:53.812Z,9.57
2018-11-27T08:50:23.440Z,9.30
2018-11-27T08:52:56.547Z,11.00
2018-11-27T08:55:30.052Z,8.23
2018-11-27T08:57:59.484Z,11.87
2018-11-27T09:00:28.362Z,19.53
2018-11-27T09:02:56.894Z,8.07
2018-11-27T09:05:25.490Z,9.87
2018-11-27T09:07:54.004Z,7.53
2018-11-27T09:10:23.972Z,9.03
2018-11-27T09:12:52.865Z,10.03
2018-11-27T09:15:22.533Z,10.50
2018-11-27T09:17:58.561Z,8.77
2018-11-27T09:20:27.110Z,7.73
2018-11-27T09:22:55.657Z,7.87
2018-11-27T09:25:24.165Z,7.73
2018-11-27T09:27:52.988Z,9.23
2018-11-27T09:30:25.877Z,9.10
2018-11-27T09:32:55.431Z,9.30
2018-11-27T09:35:24.049Z,9.23
2018-11-27T09:37:52.695Z,11.50
2018-11-27T09:40:21.623Z,10.47
2018-11-27T09:42:50.665Z,10.03
2018-11-27T09:45:20.435Z,10.33
2018-11-27T09:47:50.545Z,8.60
2018-11-27T09:50:19.426Z,9.10
2018-11-27T09:52:48.006Z,10.27
2018-11-27T09:55:20.518Z,8.43
2018-11-27T09:57:49.092Z,10.40
2018-11-27T10:00:21.339Z,8.93
2018-11-27T10:02:50.894Z,11.80
2018-11-27T10:05:19.824Z,9.27
2018-11-27T10:07:48.586Z,9.50
2018-11-27T10:10:18.923Z,10.67
2018-11-27T10:12:47.790Z,12.50
2018-11-27T10:15:18.462Z,11.83
2018-11-27T10:17:48.447Z,12.30
2018-11-27T10:20:19.329Z,11.10
2018-11-27T10:22:47.846Z,13.80
2018-11-27T10:25:16.397Z,14.77
2018-11-27T10:27:45.474Z,11.57
2018-11-27T10:30:19.613Z,14.70
2018-11-27T10:32:48.597Z,11.97
2018-11-27T10:35:18.553Z,12.47
2018-11-27T10:37:47.365Z,13.03
2018-11-27T10:40:16.379Z,16.47
2018-11-27T10:42:45.378Z,15.77
2018-11-27T10:45:16.076Z,12.53
2018-11-27T10:47:45.839Z,15.07
2018-11-27T10:50:15.341Z,12.60
2018-11-27T10:52:45.037Z,11.13
2018-11-27T10:55:15.465Z,12.83
2018-11-27T10:57:44.862Z,15.17
2018-11-27T11:00:23.694Z,13.77
2018-11-27T11:02:58.502Z,11.47
2018-11-27T11:05:28.919Z,12.97
2018-11-27T11:07:57.776Z,14.30
2018-11-27T11:10:26.330Z,15.47
2018-11-27T11:12:54.915Z,17.13
2018-11-27T11:15:23.848Z,16.27
2018-11-27T11:17:52.769Z,16.70
2018-11-27T11:20:22.087Z,20.63
2018-11-27T11:22:50.688Z,14.67
2018-11-27T11:25:22.123Z,15.47
2018-11-27T11:27:54.309Z,16.53
2018-11-27T11:30:23.498Z,14.70
2018-11-27T11:32:52.465Z,16.37
2018-11-27T11:35:21.418Z,14.23
2018-11-27T11:37:50.652Z,13.00
2018-11-27T11:40:22.910Z,14.93
2018-11-27T11:42:53.102Z,14.87
2018-11-27T11:45:21.635Z,13.47
2018-11-27T11:47:50.193Z,17.87
2018-11-27T11:50:21.535Z,13.90
2018-11-27T11:52:55.597Z,15.30
2018-11-27T11:55:24.106Z,15.30
2018-11-27T11:57:53.142Z,16.33
2018-11-27T12:00:27.727Z,18.60
2018-11-27T12:02:56.332Z,15.97
2018-11-27T12:05:25.511Z,12.27
2018-11-27T12:07:54.334Z,12.10
2018-11-27T12:10:22.909Z,15.30
2018-11-27T12:12:51.887Z,12.77
2018-11-27T12:15:20.527Z,14.20
2018-11-27T12:17:49.888Z,15.43
2018-11-27T12:20:19.543Z,14.23
2018-11-27T12:22:51.492Z,16.57
2018-11-27T12:25:24.219Z,19.43
2018-11-27T12:27:48.890Z,14.40
2018-11-27T12:30:20.461Z,17.50
2018-11-27T12:32:49.092Z,16.67
2018-11-27T12:35:18.033Z,18.60
2018-11-27T12:37:47.386Z,16.53
2018-11-27T12:40:19.056Z,19.40
2018-11-27T12:42:47.683Z,15.60
2018-11-27T12:45:18.320Z,15.20
2018-11-27T12:47:46.928Z,14.23
2018-11-27T12:50:22.445Z,14.60
2018-11-27T12:52:50.996Z,13.47
2018-11-27T12:55:21.057Z,16.87
2018-11-27T12:57:49.571Z,15.00
2018-11-27T13:00:20.194Z,14.40
2018-11-27T13:02:49.279Z,17.27
2018-11-27T13:05:20.352Z,17.83
2018-11-27T13:07:49.225Z,18.17
2018-11-27T13:10:18.275Z,15.70
2018-11-27T13:12:47.273Z,18.30
2018-11-27T13:15:18.299Z,15.40
2018-11-27T13:17:47.744Z,15.00
2018-11-27T13:20:17.378Z,21.77
2018-11-27T13:22:46.275Z,18.60
2018-11-27T13:25:18.445Z,19.03
2018-11-27T13:27:47.392Z,20.07
2018-11-27T13:30:19.072Z,18.40
2018-11-27T13:32:49.623Z,17.60
2018-11-27T13:35:18.247Z,18.67
2018-11-27T13:37:46.922Z,16.27
2018-11-27T13:40:15.763Z,21.43
2018-11-27T13:42:44.593Z,21.03
2018-11-27T13:45:14.301Z,20.67
2018-11-27T13:47:43.771Z,20.20
2018-11-27T13:50:13.733Z,25.53
2018-11-27T13:52:42.649Z,21.30
2018-11-27T13:55:16.496Z,22.30
2018-11-27T13:57:45.745Z,21.57
2018-11-27T14:00:16.175Z,25.77
2018-11-27T14:02:49.486Z,23.07
2018-11-27T14:05:20.406Z,20.63
2018-11-27T14:07:49.010Z,25.30
2018-11-27T14:10:17.806Z,24.17
2018-11-27T14:12:46.597Z,24.80
2018-11-27T14:15:16.450Z,28.73
2018-11-27T14:17:45.364Z,23.50
2018-11-27T14:20:14.213Z,24.97
2018-11-27T14:22:44.759Z,20.87
2018-11-27T14:25:13.845Z,24.23
2018-11-27T14:27:42.448Z,32.63
2018-11-27T14:30:14.537Z,27.43
2018-11-27T14:32:43.668Z,27.13
2018-11-27T14:35:13.115Z,21.73
2018-11-27T14:37:41.698Z,22.50
2018-11-27T14:40:18.351Z,17.93
2018-11-27T14:42:46.948Z,19.13
2018-11-27T14:45:16.700Z,19.97
2018-11-27T14:47:46.384Z,22.70
2018-11-27T14:50:14.948Z,24.30
2018-11-27T14:52:43.518Z,29.07
2018-11-27T14:55:16.033Z,28.37
2018-11-27T14:57:44.680Z,28.23
2018-11-27T15:00:17.360Z,26.20
2018-11-27T15:02:45.988Z,27.10
2018-11-27T15:05:17.277Z,27.40
2018-11-27T15:07:45.839Z,27.93
2018-11-27T15:10:14.413Z,34.93
2018-11-27T15:12:42.945Z,36.80
2018-11-27T15:15:12.763Z,32.80
2018-11-27T15:17:41.540Z,32.10
2018-11-27T15:20:19.220Z,30.27
2018-11-27T15:22:48.229Z,26.23
2018-11-27T15:25:16.759Z,27.83
2018-11-27T15:27:45.448Z,26.77
2018-11-27T15:30:17.032Z,28.30
2018-11-27T15:32:46.026Z,24.87
2018-11-27T15:35:14.928Z,31.47
2018-11-27T15:37:43.489Z,25.70
2018-11-27T15:40:16.437Z,29.50
2018-11-27T15:42:45.124Z,25.23
2018-11-27T15:45:30.977Z,27.00
2018-11-27T15:47:59.653Z,24.50
2018-11-27T15:50:28.219Z,30.50
2018-11-27T15:52:56.773Z,22.90
2018-11-27T15:55:26.469Z,26.40
2018-11-27T15:57:58.263Z,43.10
2018-11-27T16:00:27.087Z,49.20
2018-11-27T16:02:55.662Z,48.47
2018-11-27T16:05:24.813Z,38.27
2018-11-27T16:07:53.734Z,51.70
2018-11-27T16:10:22.371Z,45.77
2018-11-27T16:12:50.917Z,42.27
2018-11-27T16:15:20.457Z,49.43
2018-11-27T16:17:50.153Z,39.10
2018-11-27T16:20:20.396Z,52.70
2018-11-27T16:22:49.896Z,50.67
2018-11-27T16:25:19.527Z,35.10
2018-11-27T16:27:48.412Z,34.57
2018-11-27T16:30:23.056Z,46.73
2018-11-27T16:32:51.649Z,50.70
2018-11-27T16:35:20.209Z,41.63
2018-11-27T16:37:50.279Z,33.97
2018-11-27T16:40:20.202Z,32.03
2018-11-27T16:42:48.766Z,31.90
2018-11-27T16:45:18.986Z,36.63
2018-11-27T16:47:47.889Z,29.33
2018-11-27T16:50:17.392Z,32.43
2018-11-27T16:52:46.405Z,34.20
2018-11-27T16:55:17.947Z,36.83
2018-11-27T16:57:46.570Z,38.93
2018-11-27T17:00:18.696Z,38.43
2018-11-27T17:02:47.825Z,56.13
2018-11-27T17:05:16.570Z,54.83
2018-11-27T17:07:45.177Z,47.60
2018-11-27T17:10:17.819Z,71.27
2018-11-27T17:12:47.394Z,51.73
2018-11-27T17:15:17.373Z,63.33
2018-11-27T17:17:45.965Z,69.57
2018-11-27T17:20:20.243Z,80.47
2018-11-27T17:22:48.888Z,87.03
2018-11-27T17:25:17.551Z,63.20
2018-11-27T17:27:46.203Z,75.80
2018-11-27T17:30:24.558Z,55.73
2018-11-27T17:32:54.219Z,81.60
2018-11-27T17:35:23.385Z,55.13
2018-11-27T17:37:52.241Z,68.20
2018-11-27T17:40:21.139Z,61.70
2018-11-27T17:42:50.037Z,35.43
2018-11-27T17:45:18.629Z,45.80
2018-11-27T17:47:47.307Z,41.20
2018-11-27T17:50:17.058Z,35.53
2018-11-27T17:52:45.696Z,34.33
2018-11-27T17:55:15.288Z,62.13
2018-11-27T17:57:44.608Z,44.70
2018-11-27T18:00:15.562Z,34.40
2018-11-27T18:02:45.984Z,28.10
2018-11-27T18:05:14.633Z,28.33
2018-11-27T18:07:43.234Z,41.23
2018-11-27T18:10:12.405Z,36.23
2018-11-27T18:12:41.832Z,29.73
2018-11-27T18:15:19.380Z,49.87
2018-11-27T18:17:48.039Z,54.40
2018-11-27T18:20:16.646Z,44.80
2018-11-27T18:22:45.432Z,44.60
2018-11-27T18:25:16.642Z,42.80
2018-11-27T18:27:46.289Z,41.47
2018-11-27T18:30:16.276Z,42.53
2018-11-27T18:32:44.932Z,41.43
2018-11-27T18:35:15.600Z,40.53
2018-11-27T18:37:44.499Z,37.17
2018-11-27T18:40:13.891Z,36.67
2018-11-27T18:42:43.312Z,33.40
2018-11-27T18:45:21.119Z,26.00
2018-11-27T18:47:50.085Z,28.40
2018-11-27T18:50:19.099Z,27.50
2018-11-27T18:52:48.410Z,26.00
2018-11-27T18:55:17.343Z,29.43
2018-11-27T18:57:48.493Z,25.23
2018-11-27T19:00:23.826Z,27.97
2018-11-27T19:02:54.022Z,24.53
2018-11-27T19:05:22.776Z,27.00
2018-11-27T19:07:51.941Z,26.70
2018-11-27T19:10:22.224Z,25.40
2018-11-27T19:12:51.162Z,24.50
2018-11-27T19:15:50.976Z,24.60
2018-11-27T19:18:21.952Z,25.30
2018-11-27T19:20:50.981Z,28.50
2018-11-27T19:23:21.093Z,25.67
2018-11-27T19:25:49.905Z,27.27
2018-11-27T19:28:18.981Z,25.53
2018-11-27T19:30:48.084Z,22.53
2018-11-27T19:33:17.302Z,27.47
2018-11-27T19:35:47.167Z,38.80
2018-11-27T19:38:18.383Z,32.03
2018-11-27T19:40:47.335Z,31.80
2018-11-27T19:43:16.118Z,30.23
2018-11-27T19:45:45.221Z,28.20
2018-11-27T19:48:15.126Z,29.30
2018-11-27T19:50:44.877Z,26.93
2018-11-27T19:53:15.769Z,28.70
2018-11-27T19:55:45.396Z,26.20
2018-11-27T19:58:14.635Z,29.97
2018-11-27T20:00:45.114Z,29.47
2018-11-27T20:03:14.523Z,27.80
2018-11-27T20:05:44.240Z,35.63
2018-11-27T20:08:17.193Z,31.53
2018-11-27T20:10:47.111Z,29.67
2018-11-27T20:13:17.569Z,30.43
2018-11-27T20:15:47.406Z,36.63
2018-11-27T20:18:16.944Z,24.40
2018-11-27T20:20:47.059Z,28.37
2018-11-27T20:23:16.946Z,30.27
2018-11-27T20:25:46.623Z,32.37
2018-11-27T20:28:16.458Z,48.37
2018-11-27T20:30:46.337Z,42.37
2018-11-27T20:33:15.951Z,38.57
2018-11-27T20:35:46.050Z,29.70
2018-11-27T20:38:15.978Z,32.13
2018-11-27T20:40:48.382Z,38.23
2018-11-27T20:43:16.493Z,53.73
2018-11-27T20:45:46.549Z,42.97
2018-11-27T20:48:18.553Z,32.97
2018-11-27T20:50:54.413Z,32.80
2018-11-27T20:53:23.896Z,33.07
2018-11-27T20:55:53.994Z,34.87
2018-11-27T20:58:22.904Z,37.50
2018-11-27T21:00:53.203Z,44.70
2018-11-27T21:03:22.902Z,30.43
2018-11-27T21:05:52.905Z,25.97
2018-11-27T21:08:22.007Z,24.93
2018-11-27T21:10:51.358Z,27.97
2018-11-27T21:13:21.064Z,26.70
2018-11-27T21:15:49.960Z,26.40
2018-11-27T21:18:18.686Z,29.23
2018-11-27T21:20:47.743Z,29.10
2018-11-27T21:23:16.900Z,28.07
2018-11-27T21:25:45.844Z,29.90
2018-11-27T21:28:19.223Z,26.93
2018-11-27T21:30:51.536Z,31.40
2018-11-27T21:33:20.957Z,26.03
2018-11-27T21:35:50.103Z,25.30
2018-11-27T21:38:19.089Z,23.93
2018-11-27T21:40:49.171Z,23.90
2018-11-27T21:43:18.824Z,23.27
2018-11-27T21:45:47.639Z,22.47
2018-11-27T21:48:17.675Z,19.80
2018-11-27T21:50:46.685Z,20.90
2018-11-27T21:53:15.494Z,24.97
2018-11-27T21:55:45.342Z,27.57
2018-11-27T21:58:13.988Z,29.07
2018-11-27T22:00:43.277Z,35.57
2018-11-27T22:03:12.921Z,31.03
2018-11-27T22:05:41.670Z,35.53
2018-11-27T22:08:10.537Z,38.13
2018-11-27T22:10:40.161Z,37.20
2018-11-27T22:13:13.706Z,26.80
2018-11-27T22:15:43.872Z,30.03
2018-11-27T22:18:13.511Z,24.57
2018-11-27T22:20:42.224Z,21.53
2018-11-27T22:23:10.944Z,26.87
2018-11-27T22:25:41.125Z,18.30
2018-11-27T22:28:10.081Z,18.90
2018-11-27T22:30:38.969Z,15.03
2018-11-27T22:33:08.508Z,23.10
2018-11-27T22:35:39.925Z,32.73
2018-11-27T22:38:08.807Z,59.53
2018-11-27T22:40:37.397Z,60.77
2018-11-27T22:43:08.131Z,71.70
2018-11-27T22:45:39.195Z,48.23
2018-11-27T22:48:09.552Z,29.27
2018-11-27T22:50:38.359Z,48.47
2018-11-27T22:53:08.012Z,41.53
2018-11-27T22:55:37.048Z,38.80
2018-11-27T22:58:06.922Z,29.50
2018-11-27T23:00:54.259Z,16.90
2018-11-27T23:03:22.842Z,24.50
2018-11-27T23:08:31.536Z,26.37
2018-11-27T23:11:00.101Z,20.00
2018-11-27T23:13:28.619Z,17.63
2018-11-27T23:15:57.198Z,21.80
2018-11-27T23:18:26.104Z,17.90
2018-11-27T23:20:54.692Z,17.00
2018-11-27T23:23:23.292Z,22.30
2018-11-27T23:25:52.326Z,18.97
2018-11-27T23:28:21.253Z,19.10
2018-11-27T23:30:49.871Z,18.83
2018-11-27T23:33:18.433Z,19.77
2018-11-27T23:35:46.923Z,19.70
2018-11-27T23:38:15.515Z,17.90
2018-11-27T23:40:44.093Z,28.40
2018-11-27T23:43:12.775Z,15.70
2018-11-27T23:45:41.903Z,18.87
2018-11-27T23:48:10.392Z,22.90
2018-11-27T23:50:38.923Z,21.63
2018-11-27T23:53:07.759Z,25.97
2018-11-27T23:55:36.649Z,17.80
2018-11-27T23:58:05.290Z,17.13
